Time;durP1;ratioP1;P1;durP2;ratioP2;P2;SDS_P1;SDS_P2;PMS_P1;PMS_P2;Temp;Humidity;BMP_temperature;BMP_pressure;BME280_temperature;BME280_humidity;BME280_pressure;Samples;Min_cycle;Max_cycle;Signal;HPM_P1;HPM_P2
2024/01/11 00:02:18;;;;;;;1.00;1.00;;;;;;;;;;6200521;28;20543;-73
2024/01/11 00:05:22;;;;;;;1.00;1.00;;;;;;;;;;6213135;28;20594;-73
2024/01/11 00:08:26;;;;;;;1.30;0.97;;;;;;;;;;6195055;28;20603;-73
2024/01/11 00:11:30;;;;;;;3.10;1.10;;;;;;;;;;6214661;28;20308;-73
2024/01/11 00:14:35;;;;;;;0.80;0.80;;;;;;;;;;6237402;28;20305;-73
2024/01/11 00:17:40;;;;;;;1.00;1.00;;;;;;;;;;6202919;28;20294;-73
2024/01/11 00:20:45;;;;;;;2.20;0.90;;;;;;;;;;6196677;28;20299;-73
2024/01/11 00:23:50;;;;;;;1.13;1.13;;;;;;;;;;6214003;28;20313;-73
2024/01/11 00:26:54;;;;;;;0.90;0.90;;;;;;;;;;6201187;28;20295;-73
2024/01/11 00:29:58;;;;;;;1.10;1.10;;;;;;;;;;6188036;28;20309;-74
2024/01/11 00:33:03;;;;;;;0.90;0.90;;;;;;;;;;6193129;28;20295;-73
2024/01/11 00:36:08;;;;;;;1.10;1.07;;;;;;;;;;6209383;28;20294;-73
2024/01/11 00:39:11;;;;;;;2.93;1.00;;;;;;;;;;6189228;28;20290;-73
2024/01/11 00:42:15;;;;;;;0.90;0.90;;;;;;;;;;6237892;28;20285;-74
2024/01/11 00:45:19;;;;;;;1.00;0.97;;;;;;;;;;6217071;28;20312;-73
2024/01/11 00:48:25;;;;;;;0.60;0.60;;;;;;;;;;6215678;28;20294;-73
2024/01/11 00:51:29;;;;;;;1.00;1.00;;;;;;;;;;6234771;28;20330;-73
2024/01/11 00:54:33;;;;;;;1.50;0.93;;;;;;;;;;6200094;28;20524;-73
2024/01/11 00:57:37;;;;;;;1.20;1.10;;;;;;;;;;6218683;28;20298;-73
2024/01/11 01:00:41;;;;;;;1.43;0.80;;;;;;;;;;6229175;28;20283;-73
2024/01/11 01:03:47;;;;;;;0.70;0.70;;;;;;;;;;6221136;28;20296;-73
2024/01/11 01:06:51;;;;;;;0.70;0.70;;;;;;;;;;6226827;28;20299;-73
2024/01/11 01:09:55;;;;;;;0.80;0.80;;;;;;;;;;6236067;28;20298;-74
2024/01/11 01:12:59;;;;;;;0.80;0.80;;;;;;;;;;6226750;28;20294;-74
2024/01/11 01:16:04;;;;;;;0.60;0.60;;;;;;;;;;6237490;28;20297;-74
2024/01/11 01:19:10;;;;;;;2.47;0.87;;;;;;;;;;6236250;28;20296;-74
2024/01/11 01:22:14;;;;;;;0.87;0.87;;;;;;;;;;6218771;28;20294;-74
2024/01/11 01:25:19;;;;;;;1.03;0.80;;;;;;;;;;6238404;28;20291;-74
2024/01/11 01:28:23;;;;;;;0.87;0.80;;;;;;;;;;6226125;28;20485;-73
2024/01/11 01:31:27;;;;;;;0.97;0.97;;;;;;;;;;6209674;28;20482;-74
2024/01/11 01:34:32;;;;;;;1.20;0.80;;;;;;;;;;6194570;28;20324;-73
2024/01/11 01:37:37;;;;;;;0.70;0.70;;;;;;;;;;6211291;28;20294;-73
2024/01/11 01:40:41;;;;;;;1.47;0.80;;;;;;;;;;6185628;28;20312;-73
2024/01/11 01:43:45;;;;;;;0.70;0.70;;;;;;;;;;6201212;28;20474;-73
2024/01/11 01:46:49;;;;;;;0.80;0.80;;;;;;;;;;6208338;28;20300;-73
2024/01/11 01:49:56;;;;;;;0.70;0.70;;;;;;;;;;6211183;28;20292;-74
2024/01/11 01:53:01;;;;;;;0.80;0.80;;;;;;;;;;6211433;28;20477;-74
2024/01/11 01:56:06;;;;;;;0.70;0.70;;;;;;;;;;6188751;28;20300;-74
2024/01/11 01:59:11;;;;;;;0.80;0.80;;;;;;;;;;6211623;28;20312;-74
2024/01/11 02:02:15;;;;;;;0.80;0.80;;;;;;;;;;6213163;28;20474;-73
2024/01/11 02:05:21;;;;;;;0.80;0.80;;;;;;;;;;6220372;28;20296;-73
2024/01/11 02:08:25;;;;;;;0.60;0.60;;;;;;;;;;6193041;28;20458;-73
2024/01/11 02:11:29;;;;;;;0.70;0.70;;;;;;;;;;6184696;28;20295;-73
2024/01/11 02:14:34;;;;;;;0.70;0.70;;;;;;;;;;6209468;28;20295;-73
2024/01/11 02:17:41;;;;;;;0.70;0.70;;;;;;;;;;6211395;28;20296;-73
2024/01/11 02:20:47;;;;;;;0.70;0.70;;;;;;;;;;6229398;28;20297;-73
2024/01/11 02:24:03;;;;;;;0.67;0.67;;;;;;;;;;6235097;28;20291;-73
2024/01/11 02:27:10;;;;;;;0.67;0.67;;;;;;;;;;6235663;28;20308;-74
2024/01/11 02:30:15;;;;;;;0.60;0.60;;;;;;;;;;6233642;28;20295;-74
2024/01/11 02:33:19;;;;;;;0.67;0.67;;;;;;;;;;6231819;28;20303;-72
2024/01/11 02:36:23;;;;;;;0.70;0.70;;;;;;;;;;6235407;28;20299;-72
2024/01/11 02:39:29;;;;;;;1.60;0.80;;;;;;;;;;6233402;28;20298;-73
2024/01/11 02:42:33;;;;;;;0.80;0.80;;;;;;;;;;6234937;28;20304;-73
2024/01/11 02:45:37;;;;;;;0.60;0.60;;;;;;;;;;6187949;28;20309;-73
2024/01/11 02:48:41;;;;;;;2.27;0.80;;;;;;;;;;6208898;28;20311;-73
2024/01/11 02:51:45;;;;;;;0.60;0.60;;;;;;;;;;6200390;28;20405;-74
2024/01/11 02:54:50;;;;;;;0.63;0.63;;;;;;;;;;6181170;28;20291;-72
2024/01/11 02:57:54;;;;;;;0.60;0.60;;;;;;;;;;6209878;28;20294;-73
2024/01/11 03:00:58;;;;;;;0.70;0.70;;;;;;;;;;6184156;28;20312;-73
2024/01/11 03:04:02;;;;;;;0.70;0.70;;;;;;;;;;6226076;28;20295;-73
2024/01/11 03:07:06;;;;;;;0.50;0.50;;;;;;;;;;6207012;28;20306;-73
2024/01/11 03:10:12;;;;;;;0.60;0.60;;;;;;;;;;6199831;28;20309;-74
2024/01/11 03:13:16;;;;;;;0.67;0.67;;;;;;;;;;6190368;28;20284;-73
2024/01/11 03:16:20;;;;;;;0.60;0.60;;;;;;;;;;6201432;28;20295;-73
2024/01/11 03:19:24;;;;;;;0.70;0.70;;;;;;;;;;6192261;28;20298;-73
2024/01/11 03:22:29;;;;;;;0.70;0.70;;;;;;;;;;6205052;28;20291;-74
2024/01/11 03:25:34;;;;;;;0.73;0.73;;;;;;;;;;6209476;28;20303;-73
2024/01/11 03:28:38;;;;;;;0.70;0.70;;;;;;;;;;6191554;28;20288;-75
2024/01/11 03:31:44;;;;;;;0.70;0.70;;;;;;;;;;6207085;28;20291;-73
2024/01/11 03:34:49;;;;;;;0.80;0.80;;;;;;;;;;6192006;28;20562;-73
2024/01/11 03:37:53;;;;;;;0.90;0.90;;;;;;;;;;6208660;28;20300;-73
2024/01/11 03:40:58;;;;;;;0.77;0.77;;;;;;;;;;6227712;28;20445;-73
2024/01/11 03:44:02;;;;;;;0.87;0.80;;;;;;;;;;6231376;28;20306;-73
2024/01/11 03:47:07;;;;;;;0.83;0.70;;;;;;;;;;6183992;28;20448;-72
2024/01/11 03:50:11;;;;;;;0.80;0.80;;;;;;;;;;6202952;28;20303;-74
2024/01/11 03:53:15;;;;;;;0.60;0.60;;;;;;;;;;6197230;28;20440;-73
2024/01/11 03:56:21;;;;;;;0.67;0.67;;;;;;;;;;6191748;28;20304;-72
2024/01/11 03:59:25;;;;;;;0.70;0.70;;;;;;;;;;6194210;28;20296;-72
2024/01/11 04:02:29;;;;;;;0.70;0.70;;;;;;;;;;6195946;28;20473;-73
2024/01/11 04:05:33;;;;;;;0.70;0.70;;;;;;;;;;6211127;28;20299;-73
2024/01/11 04:08:37;;;;;;;0.67;0.67;;;;;;;;;;6203698;28;20299;-73
2024/01/11 04:11:42;;;;;;;0.63;0.63;;;;;;;;;;6191843;28;20300;-73
2024/01/11 04:14:47;;;;;;;0.60;0.60;;;;;;;;;;6206488;28;20292;-73
2024/01/11 04:17:51;;;;;;;0.73;0.73;;;;;;;;;;6209038;28;20291;-73
2024/01/11 04:20:55;;;;;;;0.63;0.63;;;;;;;;;;6228786;28;20296;-73
2024/01/11 04:23:59;;;;;;;0.87;0.87;;;;;;;;;;6233458;28;20307;-73
2024/01/11 04:27:04;;;;;;;0.80;0.80;;;;;;;;;;6211498;28;20293;-73
2024/01/11 04:30:09;;;;;;;0.80;0.80;;;;;;;;;;6197242;28;20507;-73
2024/01/11 04:33:13;;;;;;;0.73;0.73;;;;;;;;;;6208648;28;20301;-73
2024/01/11 04:36:18;;;;;;;1.03;0.70;;;;;;;;;;6196070;28;20308;-73
2024/01/11 04:39:22;;;;;;;0.90;0.90;;;;;;;;;;6236707;28;20389;-73
2024/01/11 04:42:27;;;;;;;0.80;0.80;;;;;;;;;;6231495;28;20470;-73
2024/01/11 04:45:31;;;;;;;0.70;0.70;;;;;;;;;;6212524;28;20292;-72
2024/01/11 04:48:35;;;;;;;1.27;1.00;;;;;;;;;;6228174;28;20371;-72
2024/01/11 04:51:40;;;;;;;0.70;0.70;;;;;;;;;;6235331;28;20284;-73
2024/01/11 04:54:44;;;;;;;0.70;0.70;;;;;;;;;;6235335;28;20575;-72
2024/01/11 04:57:49;;;;;;;0.70;0.70;;;;;;;;;;6237212;28;20284;-73
2024/01/11 05:00:53;;;;;;;0.80;0.60;;;;;;;;;;6234932;28;20292;-72
2024/01/11 05:03:57;;;;;;;0.60;0.60;;;;;;;;;;6234675;28;20296;-72
2024/01/11 05:07:01;;;;;;;0.77;0.73;;;;;;;;;;6230380;28;20319;-72
2024/01/11 05:10:06;;;;;;;0.50;0.50;;;;;;;;;;6221988;28;20300;-73
2024/01/11 05:13:11;;;;;;;0.50;0.50;;;;;;;;;;6211131;28;20297;-72
2024/01/11 05:16:22;;;;;;;0.70;0.70;;;;;;;;;;6184853;28;20305;-73
2024/01/11 05:19:26;;;;;;;0.70;0.70;;;;;;;;;;6183861;28;20485;-74
2024/01/11 05:22:30;;;;;;;0.70;0.70;;;;;;;;;;6202769;28;20316;-73
2024/01/11 05:25:34;;;;;;;0.67;0.67;;;;;;;;;;6185205;28;20485;-73
2024/01/11 05:28:40;;;;;;;0.67;0.67;;;;;;;;;;6200959;28;20301;-73
2024/01/11 05:31:44;;;;;;;0.67;0.67;;;;;;;;;;6213395;28;20292;-73
2024/01/11 05:34:48;;;;;;;0.70;0.70;;;;;;;;;;6212363;28;20256;-73
2024/01/11 05:37:53;;;;;;;0.70;0.70;;;;;;;;;;6211160;28;20548;-73
2024/01/11 05:40:57;;;;;;;1.20;0.80;;;;;;;;;;6211533;28;20292;-73
2024/01/11 05:44:02;;;;;;;0.60;0.60;;;;;;;;;;6176872;28;20633;-73
2024/01/11 05:47:06;;;;;;;0.70;0.70;;;;;;;;;;6169336;28;20301;-73
2024/01/11 05:50:11;;;;;;;0.60;0.60;;;;;;;;;;6210797;28;20589;-73
2024/01/11 05:53:17;;;;;;;0.73;0.73;;;;;;;;;;6211695;28;20277;-74
2024/01/11 05:56:21;;;;;;;0.60;0.60;;;;;;;;;;6197457;28;20297;-73
2024/01/11 05:59:26;;;;;;;0.60;0.60;;;;;;;;;;6205561;28;20300;-72
2024/01/11 06:02:31;;;;;;;0.60;0.60;;;;;;;;;;6215569;28;20301;-72
2024/01/11 06:05:35;;;;;;;0.60;0.60;;;;;;;;;;6208004;28;20289;-72
2024/01/11 06:08:40;;;;;;;0.50;0.50;;;;;;;;;;6234445;28;20291;-73
2024/01/11 06:11:44;;;;;;;0.70;0.70;;;;;;;;;;6200966;28;20284;-73
2024/01/11 06:14:49;;;;;;;2.50;0.70;;;;;;;;;;6190374;28;20344;-72
2024/01/11 06:17:53;;;;;;;0.60;0.60;;;;;;;;;;6204767;28;20293;-73
2024/01/11 06:20:58;;;;;;;0.63;0.63;;;;;;;;;;6213203;28;20288;-72
2024/01/11 06:24:03;;;;;;;0.80;0.80;;;;;;;;;;6212359;28;20628;-73
2024/01/11 06:27:07;;;;;;;1.37;1.00;;;;;;;;;;6214583;28;20558;-73
2024/01/11 06:30:13;;;;;;;0.80;0.80;;;;;;;;;;6211969;28;20485;-72
2024/01/11 06:33:17;;;;;;;0.97;0.97;;;;;;;;;;6212286;28;20295;-73
2024/01/11 06:36:22;;;;;;;0.60;0.60;;;;;;;;;;6212462;28;20297;-72
2024/01/11 06:39:26;;;;;;;0.80;0.80;;;;;;;;;;6211746;28;20292;-72
2024/01/11 06:42:30;;;;;;;0.70;0.70;;;;;;;;;;6212265;28;20296;-72
2024/01/11 06:45:35;;;;;;;0.80;0.80;;;;;;;;;;6211917;28;20301;-72
2024/01/11 06:48:39;;;;;;;0.80;0.80;;;;;;;;;;6221353;28;20308;-71
2024/01/11 06:51:44;;;;;;;1.17;0.77;;;;;;;;;;6217902;28;20301;-73
2024/01/11 06:54:51;;;;;;;0.67;0.67;;;;;;;;;;6159235;28;20465;-72
2024/01/11 06:57:55;;;;;;;0.67;0.67;;;;;;;;;;6194012;28;20311;-69
2024/01/11 07:01:00;;;;;;;0.70;0.70;;;;;;;;;;6236074;28;20304;-70
2024/01/11 07:04:04;;;;;;;0.80;0.80;;;;;;;;;;6216171;28;20309;-70
2024/01/11 07:07:08;;;;;;;0.77;0.77;;;;;;;;;;6212002;28;20301;-72
2024/01/11 07:10:12;;;;;;;0.70;0.70;;;;;;;;;;6228767;28;20391;-72
2024/01/11 07:13:16;;;;;;;0.73;0.73;;;;;;;;;;6217027;28;20311;-72
2024/01/11 07:16:22;;;;;;;0.67;0.67;;;;;;;;;;6236431;28;20308;-72
2024/01/11 07:19:25;;;;;;;0.97;0.80;;;;;;;;;;6235482;28;20466;-72
2024/01/11 07:22:29;;;;;;;0.90;0.90;;;;;;;;;;6216997;28;20272;-72
2024/01/11 07:25:34;;;;;;;0.70;0.67;;;;;;;;;;6235455;28;20296;-73
2024/01/11 07:28:39;;;;;;;0.80;0.80;;;;;;;;;;6235142;28;20527;-74
2024/01/11 07:31:44;;;;;;;0.90;0.90;;;;;;;;;;6228795;28;20240;-74
2024/01/11 07:34:48;;;;;;;0.73;0.73;;;;;;;;;;6235348;28;20295;-72
2024/01/11 07:37:52;;;;;;;1.00;0.83;;;;;;;;;;6234997;28;20452;-73
2024/01/11 07:40:56;;;;;;;0.80;0.80;;;;;;;;;;6236435;28;20312;-72
2024/01/11 07:44:00;;;;;;;0.83;0.83;;;;;;;;;;6234916;28;20363;-73
2024/01/11 07:47:06;;;;;;;0.90;0.90;;;;;;;;;;6235683;28;20579;-73
2024/01/11 07:50:10;;;;;;;0.97;0.90;;;;;;;;;;6234659;28;20299;-72
2024/01/11 07:53:14;;;;;;;1.67;0.90;;;;;;;;;;6222818;28;20296;-72
2024/01/11 07:56:18;;;;;;;0.80;0.80;;;;;;;;;;6211245;28;20297;-72
2024/01/11 07:59:22;;;;;;;0.80;0.80;;;;;;;;;;6210877;28;20296;-72
2024/01/11 08:02:28;;;;;;;0.90;0.90;;;;;;;;;;6217491;28;20502;-71
2024/01/11 08:05:34;;;;;;;1.73;0.80;;;;;;;;;;6235206;28;20295;-74
2024/01/11 08:08:38;;;;;;;1.23;0.80;;;;;;;;;;6234532;28;20577;-71
2024/01/11 08:11:43;;;;;;;0.73;0.73;;;;;;;;;;6213173;28;20483;-73
2024/01/11 08:14:53;;;;;;;0.80;0.80;;;;;;;;;;6215332;28;20595;-72
2024/01/11 08:18:00;;;;;;;1.50;0.90;;;;;;;;;;6197791;28;20475;-72
2024/01/11 08:21:06;;;;;;;1.13;1.10;;;;;;;;;;6191671;28;20297;-72
2024/01/11 08:24:10;;;;;;;0.83;0.83;;;;;;;;;;6200259;28;20311;-72
2024/01/11 08:27:17;;;;;;;1.03;0.80;;;;;;;;;;6216179;28;20313;-72
2024/01/11 08:30:21;;;;;;;0.77;0.77;;;;;;;;;;6215535;28;20301;-72
2024/01/11 08:33:27;;;;;;;0.80;0.80;;;;;;;;;;6215391;28;20285;-73
2024/01/11 08:36:34;;;;;;;0.70;0.70;;;;;;;;;;6215907;28;20296;-73
2024/01/11 08:39:39;;;;;;;0.93;0.70;;;;;;;;;;6215133;28;20292;-73
2024/01/11 08:42:46;;;;;;;0.80;0.80;;;;;;;;;;6215075;28;20304;-73
2024/01/11 08:45:50;;;;;;;0.50;0.50;;;;;;;;;;6215732;28;20300;-73
2024/01/11 08:48:56;;;;;;;1.47;0.70;;;;;;;;;;6214889;28;20312;-73
2024/01/11 08:52:02;;;;;;;0.70;0.70;;;;;;;;;;6215844;28;20305;-73
2024/01/11 08:55:07;;;;;;;0.77;0.70;;;;;;;;;;6215183;28;20321;-73
2024/01/11 08:58:12;;;;;;;0.83;0.83;;;;;;;;;;6216605;28;20466;-73
2024/01/11 09:01:16;;;;;;;1.00;0.90;;;;;;;;;;6239578;28;20295;-72
2024/01/11 09:04:21;;;;;;;1.07;0.70;;;;;;;;;;6217913;28;20292;-72
2024/01/11 09:07:25;;;;;;;0.70;0.70;;;;;;;;;;6216316;28;20408;-74
2024/01/11 09:10:29;;;;;;;0.90;0.90;;;;;;;;;;6220875;28;20299;-73
2024/01/11 09:13:33;;;;;;;1.20;1.00;;;;;;;;;;6220305;28;20503;-73
2024/01/11 09:16:37;;;;;;;0.80;0.80;;;;;;;;;;6215418;28;20241;-73
2024/01/11 09:19:42;;;;;;;0.97;0.70;;;;;;;;;;6197508;28;20299;-73
2024/01/11 09:22:47;;;;;;;0.77;0.77;;;;;;;;;;6219082;28;20365;-74
2024/01/11 09:25:51;;;;;;;0.80;0.80;;;;;;;;;;6221854;28;20309;-73
2024/01/11 09:28:54;;;;;;;1.17;0.80;;;;;;;;;;6223064;28;20295;-73
2024/01/11 09:31:59;;;;;;;1.43;0.80;;;;;;;;;;6225002;28;20303;-72
2024/01/11 09:35:06;;;;;;;1.37;0.90;;;;;;;;;;6226461;28;20320;-73
2024/01/11 09:38:10;;;;;;;0.80;0.80;;;;;;;;;;6225809;28;20289;-73
2024/01/11 09:41:15;;;;;;;0.70;0.70;;;;;;;;;;6227552;28;20252;-73
2024/01/11 09:44:19;;;;;;;1.07;0.90;;;;;;;;;;6230566;28;20297;-74
2024/01/11 09:47:23;;;;;;;0.87;0.70;;;;;;;;;;6249486;28;20291;-73
2024/01/11 09:50:29;;;;;;;1.30;0.80;;;;;;;;;;6249312;28;20596;-73
2024/01/11 09:53:34;;;;;;;0.70;0.70;;;;;;;;;;6250481;28;20288;-72
2024/01/11 09:56:38;;;;;;;0.87;0.87;;;;;;;;;;6251099;28;20299;-72
2024/01/11 09:59:44;;;;;;;1.60;0.90;;;;;;;;;;6250774;28;20287;-73
2024/01/11 10:02:47;;;;;;;1.30;1.30;;;;;;;;;;6223631;28;20288;-74
2024/01/11 10:05:56;;;;;;;1.60;1.00;;;;;;;;;;6227572;28;20253;-75
2024/01/11 10:09:00;;;;;;;1.07;1.07;;;;;;;;;;6227400;28;20331;-72
2024/01/11 10:12:05;;;;;;;1.33;0.93;;;;;;;;;;6246579;28;20337;-71
2024/01/11 10:15:10;;;;;;;1.40;1.30;;;;;;;;;;6250883;28;20239;-72
2024/01/11 10:18:14;;;;;;;0.87;0.87;;;;;;;;;;6251505;28;20243;-73
2024/01/11 10:21:20;;;;;;;0.93;0.93;;;;;;;;;;6251740;28;20274;-75
2024/01/11 10:24:26;;;;;;;1.50;0.90;;;;;;;;;;6251827;28;20288;-74
2024/01/11 10:27:30;;;;;;;0.90;0.90;;;;;;;;;;6251365;28;20254;-72
2024/01/11 10:30:35;;;;;;;0.90;0.90;;;;;;;;;;6249537;28;20295;-73
2024/01/11 10:33:39;;;;;;;0.93;0.93;;;;;;;;;;6234525;28;20323;-74
2024/01/11 10:36:45;;;;;;;1.30;0.80;;;;;;;;;;6237797;28;20299;-74
2024/01/11 10:39:50;;;;;;;3.83;0.77;;;;;;;;;;6236616;28;20285;-75
2024/01/11 10:42:59;;;;;;;2.63;1.03;;;;;;;;;;6236699;28;20595;-72
2024/01/11 10:46:06;;;;;;;0.80;0.80;;;;;;;;;;6237443;28;20483;-73
2024/01/11 10:49:11;;;;;;;1.37;0.90;;;;;;;;;;6236516;28;20318;-74
2024/01/11 10:52:18;;;;;;;0.97;0.97;;;;;;;;;;6232335;28;20292;-74
2024/01/11 10:55:22;;;;;;;0.90;0.90;;;;;;;;;;6222907;28;20542;-73
2024/01/11 10:58:27;;;;;;;1.00;1.00;;;;;;;;;;6235564;28;20300;-75
2024/01/11 11:01:31;;;;;;;1.10;1.00;;;;;;;;;;6236480;28;20250;-74
2024/01/11 11:04:37;;;;;;;1.00;1.00;;;;;;;;;;6212461;28;20291;-72
2024/01/11 11:07:43;;;;;;;1.17;1.17;;;;;;;;;;6212282;28;20248;-71
2024/01/11 11:10:48;;;;;;;0.87;0.87;;;;;;;;;;6219804;28;20468;-72
2024/01/11 11:13:53;;;;;;;1.00;1.00;;;;;;;;;;6235774;28;20284;-73
2024/01/11 11:16:57;;;;;;;1.33;1.00;;;;;;;;;;6235960;28;20319;-73
2024/01/11 11:20:01;;;;;;;1.00;1.00;;;;;;;;;;6235662;28;20300;-73
2024/01/11 11:23:07;;;;;;;1.03;1.03;;;;;;;;;;6235757;28;20427;-73
2024/01/11 11:26:16;;;;;;;2.03;0.97;;;;;;;;;;6235960;28;20489;-73
2024/01/11 11:29:21;;;;;;;0.80;0.80;;;;;;;;;;6236618;28;20303;-74
2024/01/11 11:32:36;;;;;;;2.13;0.90;;;;;;;;;;6211901;28;20595;-74
2024/01/11 11:35:40;;;;;;;0.77;0.77;;;;;;;;;;6211321;28;20303;-73
2024/01/11 11:38:46;;;;;;;2.30;1.10;;;;;;;;;;6211123;28;20300;-73
2024/01/11 11:41:51;;;;;;;1.67;0.90;;;;;;;;;;6211677;28;20304;-75
2024/01/11 11:44:55;;;;;;;2.20;1.17;;;;;;;;;;6193102;28;20595;-74
2024/01/11 11:47:59;;;;;;;0.90;0.90;;;;;;;;;;6214619;28;20323;-75
2024/01/11 11:51:04;;;;;;;0.80;0.80;;;;;;;;;;6216570;28;20294;-73
2024/01/11 11:54:10;;;;;;;1.07;1.07;;;;;;;;;;6215782;28;20306;-75
2024/01/11 11:57:17;;;;;;;1.60;0.80;;;;;;;;;;6216540;28;20499;-74
2024/01/11 12:00:23;;;;;;;1.00;1.00;;;;;;;;;;6216372;28;20299;-73
2024/01/11 12:03:30;;;;;;;0.80;0.80;;;;;;;;;;6230409;28;20285;-75
2024/01/11 12:06:34;;;;;;;1.13;0.97;;;;;;;;;;6224279;28;20328;-74
2024/01/11 12:09:42;;;;;;;0.93;0.93;;;;;;;;;;6216466;28;20316;-73
2024/01/11 12:12:51;;;;;;;0.90;0.90;;;;;;;;;;6183190;28;20301;-73
2024/01/11 12:15:58;;;;;;;0.80;0.80;;;;;;;;;;6203850;28;20299;-74
2024/01/11 12:19:02;;;;;;;0.87;0.87;;;;;;;;;;6215667;28;20346;-73
2024/01/11 12:22:06;;;;;;;0.97;0.97;;;;;;;;;;6216147;28;20298;-73
2024/01/11 12:25:12;;;;;;;0.87;0.87;;;;;;;;;;6215386;28;20394;-74
2024/01/11 12:28:16;;;;;;;0.63;0.63;;;;;;;;;;6197519;28;20298;-74
2024/01/11 12:31:22;;;;;;;1.17;0.80;;;;;;;;;;6215807;28;20303;-73
2024/01/11 12:34:27;;;;;;;0.70;0.70;;;;;;;;;;6213848;28;20604;-74
2024/01/11 12:37:31;;;;;;;0.87;0.87;;;;;;;;;;6215400;28;20247;-74
2024/01/11 12:40:38;;;;;;;0.80;0.80;;;;;;;;;;6214955;28;20286;-73
2024/01/11 12:43:42;;;;;;;0.80;0.80;;;;;;;;;;6214897;28;20301;-73
2024/01/11 12:46:46;;;;;;;0.80;0.80;;;;;;;;;;6215151;28;20307;-73
2024/01/11 12:49:51;;;;;;;1.20;0.97;;;;;;;;;;6214276;28;20303;-74
2024/01/11 12:53:07;;;;;;;0.80;0.80;;;;;;;;;;6200143;28;20304;-74
2024/01/11 12:56:16;;;;;;;0.90;0.90;;;;;;;;;;6214979;28;20316;-73
2024/01/11 12:59:20;;;;;;;0.80;0.80;;;;;;;;;;6213991;28;20300;-74
2024/01/11 13:02:24;;;;;;;1.97;0.83;;;;;;;;;;6220759;28;20480;-74
2024/01/11 13:05:29;;;;;;;1.50;1.00;;;;;;;;;;6238791;28;20322;-73
2024/01/11 13:08:36;;;;;;;0.90;0.90;;;;;;;;;;6239073;28;20536;-73
2024/01/11 13:11:41;;;;;;;0.83;0.80;;;;;;;;;;6236458;28;20303;-72
2024/01/11 13:14:45;;;;;;;1.43;0.80;;;;;;;;;;6238541;28;20298;-73
2024/01/11 13:17:49;;;;;;;0.90;0.90;;;;;;;;;;6238454;28;20290;-73
2024/01/11 13:20:53;;;;;;;0.93;0.93;;;;;;;;;;6232303;28;20295;-73
2024/01/11 13:23:57;;;;;;;2.23;1.10;;;;;;;;;;6214051;28;20298;-72
2024/01/11 13:27:04;;;;;;;0.93;0.90;;;;;;;;;;6214403;28;20299;-73
2024/01/11 13:30:09;;;;;;;1.27;1.27;;;;;;;;;;6214196;28;20577;-75
2024/01/11 13:33:14;;;;;;;1.03;1.03;;;;;;;;;;6213924;28;20294;-73
2024/01/11 13:36:18;;;;;;;1.33;1.33;;;;;;;;;;6223579;28;20297;-72
2024/01/11 13:39:23;;;;;;;1.20;1.20;;;;;;;;;;6238200;28;20299;-73
2024/01/11 13:42:29;;;;;;;1.40;1.30;;;;;;;;;;6238475;28;20306;-72
2024/01/11 13:45:35;;;;;;;1.03;1.00;;;;;;;;;;6237223;28;20481;-73
2024/01/11 13:48:40;;;;;;;1.00;1.00;;;;;;;;;;6229256;28;20294;-72
2024/01/11 13:51:45;;;;;;;1.67;1.27;;;;;;;;;;6219730;28;20306;-72
2024/01/11 13:55:03;;;;;;;1.23;1.10;;;;;;;;;;6213831;28;20296;-72
2024/01/11 13:58:09;;;;;;;2.00;1.27;;;;;;;;;;6237267;28;20286;-73
2024/01/11 14:01:13;;;;;;;1.13;1.13;;;;;;;;;;6238500;28;20316;-73
2024/01/11 14:04:17;;;;;;;1.17;1.17;;;;;;;;;;6216086;28;20299;-73
2024/01/11 14:07:21;;;;;;;1.17;1.17;;;;;;;;;;6213768;28;20308;-73
2024/01/11 14:10:25;;;;;;;1.20;1.00;;;;;;;;;;6217920;28;20291;-74
2024/01/11 14:13:32;;;;;;;2.07;1.07;;;;;;;;;;6236096;28;20615;-73
2024/01/11 14:16:36;;;;;;;1.40;1.30;;;;;;;;;;6236933;28;20255;-73
2024/01/11 14:19:40;;;;;;;1.73;1.10;;;;;;;;;;6236808;28;20286;-73
2024/01/11 14:22:47;;;;;;;1.23;1.00;;;;;;;;;;6236981;28;20255;-73
2024/01/11 14:25:51;;;;;;;1.50;1.37;;;;;;;;;;6236168;28;20378;-72
2024/01/11 14:28:56;;;;;;;2.00;1.00;;;;;;;;;;6236715;28;20623;-73
2024/01/11 14:32:00;;;;;;;1.27;1.27;;;;;;;;;;6236925;28;20314;-73
2024/01/11 14:35:05;;;;;;;1.10;1.00;;;;;;;;;;6236802;28;20462;-72
2024/01/11 14:38:10;;;;;;;0.90;0.90;;;;;;;;;;6235896;28;20299;-72
2024/01/11 14:41:14;;;;;;;1.60;1.00;;;;;;;;;;6232133;28;20301;-73
2024/01/11 14:44:20;;;;;;;1.03;1.03;;;;;;;;;;6212262;28;20305;-74
2024/01/11 14:47:25;;;;;;;1.20;1.20;;;;;;;;;;6212893;28;20310;-72
2024/01/11 14:50:29;;;;;;;1.00;1.00;;;;;;;;;;6212189;28;20305;-70
2024/01/11 14:53:33;;;;;;;1.07;1.00;;;;;;;;;;6212061;28;20491;-70
2024/01/11 14:56:39;;;;;;;1.13;1.00;;;;;;;;;;6194940;28;20292;-73
2024/01/11 14:59:45;;;;;;;1.50;1.10;;;;;;;;;;6212226;28;20323;-73
2024/01/11 15:02:49;;;;;;;1.40;1.10;;;;;;;;;;6220803;28;20286;-72
2024/01/11 15:05:53;;;;;;;0.90;0.90;;;;;;;;;;6236169;28;20314;-72
2024/01/11 15:08:57;;;;;;;1.27;1.20;;;;;;;;;;6235971;28;20325;-73
2024/01/11 15:12:02;;;;;;;2.43;1.30;;;;;;;;;;6217138;28;20594;-72
2024/01/11 15:15:09;;;;;;;1.10;1.10;;;;;;;;;;6193365;28;20299;-71
2024/01/11 15:18:13;;;;;;;1.00;1.00;;;;;;;;;;6211344;28;20295;-72
2024/01/11 15:21:17;;;;;;;1.23;1.20;;;;;;;;;;6211907;28;20286;-72
2024/01/11 15:24:21;;;;;;;1.73;1.20;;;;;;;;;;6210996;28;20303;-72
2024/01/11 15:27:25;;;;;;;1.57;1.33;;;;;;;;;;6211518;28;20430;-72
2024/01/11 15:30:30;;;;;;;1.13;1.13;;;;;;;;;;6211342;28;20467;-72
2024/01/11 15:33:34;;;;;;;2.83;1.30;;;;;;;;;;6211121;28;20303;-73
2024/01/11 15:36:39;;;;;;;1.10;1.10;;;;;;;;;;6212021;28;20631;-72
2024/01/11 15:39:43;;;;;;;1.40;1.30;;;;;;;;;;6211388;28;20464;-73
2024/01/11 15:42:49;;;;;;;2.73;1.20;;;;;;;;;;6211214;28;20319;-73
2024/01/11 15:45:54;;;;;;;1.23;1.13;;;;;;;;;;6211691;28;20292;-73
2024/01/11 15:48:58;;;;;;;1.00;1.00;;;;;;;;;;6209693;28;20310;-73
2024/01/11 15:52:02;;;;;;;1.10;1.10;;;;;;;;;;6211525;28;20293;-73
2024/01/11 15:55:08;;;;;;;1.10;1.10;;;;;;;;;;6211052;28;20476;-73
2024/01/11 15:58:13;;;;;;;1.60;1.20;;;;;;;;;;6210867;28;20299;-73
2024/01/11 16:01:18;;;;;;;1.50;1.40;;;;;;;;;;6211481;28;20296;-73
2024/01/11 16:04:22;;;;;;;1.63;1.30;;;;;;;;;;6232601;28;20300;-72
2024/01/11 16:07:26;;;;;;;1.63;1.37;;;;;;;;;;6225348;28;20611;-73
2024/01/11 16:10:30;;;;;;;1.10;1.10;;;;;;;;;;6216858;28;20290;-72
2024/01/11 16:13:34;;;;;;;1.20;1.10;;;;;;;;;;6215555;28;20469;-72
2024/01/11 16:16:39;;;;;;;1.00;1.00;;;;;;;;;;6211055;28;20244;-71
2024/01/11 16:19:43;;;;;;;1.70;1.20;;;;;;;;;;6210456;28;20302;-71
2024/01/11 16:22:48;;;;;;;1.47;1.30;;;;;;;;;;6210164;28;20289;-72
2024/01/11 16:25:51;;;;;;;1.10;1.10;;;;;;;;;;6211145;28;20307;-72
2024/01/11 16:28:55;;;;;;;1.20;1.10;;;;;;;;;;6210279;28;20300;-72
2024/01/11 16:32:01;;;;;;;1.30;1.30;;;;;;;;;;6211815;28;20456;-72
2024/01/11 16:35:05;;;;;;;1.50;1.30;;;;;;;;;;6214845;28;20326;-74
2024/01/11 16:38:09;;;;;;;2.60;1.30;;;;;;;;;;6229108;28;20297;-73
2024/01/11 16:41:13;;;;;;;4.10;1.40;;;;;;;;;;6239731;28;20294;-74
2024/01/11 16:44:17;;;;;;;2.20;1.30;;;;;;;;;;6238713;28;20306;-74
2024/01/11 16:47:23;;;;;;;1.40;1.40;;;;;;;;;;6233540;28;20297;-74
2024/01/11 16:50:27;;;;;;;2.23;1.50;;;;;;;;;;6238364;28;20308;-72
2024/01/11 16:53:31;;;;;;;1.60;1.50;;;;;;;;;;6223827;28;20289;-73
2024/01/11 16:56:35;;;;;;;1.33;1.23;;;;;;;;;;6215105;28;20309;-73
2024/01/11 16:59:40;;;;;;;1.53;1.37;;;;;;;;;;6188844;28;20294;-73
2024/01/11 17:02:45;;;;;;;1.13;1.10;;;;;;;;;;6223435;28;20296;-74
2024/01/11 17:05:49;;;;;;;1.50;1.40;;;;;;;;;;6238194;28;20310;-74
2024/01/11 17:08:53;;;;;;;1.40;1.40;;;;;;;;;;6238059;28;20314;-73
2024/01/11 17:11:58;;;;;;;1.70;1.70;;;;;;;;;;6220304;28;20477;-72
2024/01/11 17:15:02;;;;;;;1.50;1.40;;;;;;;;;;6214025;28;20588;-72
2024/01/11 17:18:07;;;;;;;1.20;1.20;;;;;;;;;;6214271;28;20307;-71
2024/01/11 17:21:11;;;;;;;2.60;1.70;;;;;;;;;;6214214;28;20298;-72
2024/01/11 17:24:15;;;;;;;1.43;1.40;;;;;;;;;;6195906;28;20512;-72
2024/01/11 17:27:19;;;;;;;2.37;1.70;;;;;;;;;;6214239;28;20291;-72
2024/01/11 17:30:23;;;;;;;1.20;1.20;;;;;;;;;;6214152;28;20307;-73
2024/01/11 17:33:29;;;;;;;2.00;1.30;;;;;;;;;;6213797;28;20297;-73
2024/01/11 17:36:33;;;;;;;1.40;1.40;;;;;;;;;;6214092;28;20490;-73
2024/01/11 17:39:37;;;;;;;1.40;1.40;;;;;;;;;;6195867;28;20465;-71
2024/01/11 17:42:41;;;;;;;2.13;1.83;;;;;;;;;;6206244;28;20288;-71
2024/01/11 17:45:44;;;;;;;1.60;1.47;;;;;;;;;;6212316;28;20310;-71
2024/01/11 17:48:50;;;;;;;2.30;1.40;;;;;;;;;;6195244;28;20301;-70
2024/01/11 17:51:56;;;;;;;2.07;1.70;;;;;;;;;;6212303;28;20299;-70
2024/01/11 17:55:01;;;;;;;1.60;1.53;;;;;;;;;;6213253;28;20301;-72
2024/01/11 17:58:06;;;;;;;1.27;1.23;;;;;;;;;;6207893;28;20307;-71
2024/01/11 18:01:10;;;;;;;1.60;1.50;;;;;;;;;;6213800;28;20314;-71
2024/01/11 18:04:15;;;;;;;2.27;1.30;;;;;;;;;;6215344;28;20431;-71
2024/01/11 18:07:22;;;;;;;1.80;1.70;;;;;;;;;;6237602;28;20310;-70
2024/01/11 18:10:26;;;;;;;1.83;1.37;;;;;;;;;;6231299;28;20296;-70
2024/01/11 18:13:30;;;;;;;1.60;1.50;;;;;;;;;;6212562;28;20286;-71
2024/01/11 18:16:34;;;;;;;1.50;1.50;;;;;;;;;;6195963;28;20283;-70
2024/01/11 18:19:39;;;;;;;1.43;1.43;;;;;;;;;;6212676;28;20477;-70
2024/01/11 18:22:44;;;;;;;1.40;1.30;;;;;;;;;;6218625;28;20245;-70
2024/01/11 18:25:48;;;;;;;3.60;1.40;;;;;;;;;;6236945;28;20292;-71
2024/01/11 18:28:54;;;;;;;1.20;1.20;;;;;;;;;;6218721;28;20297;-69